sensor_id;sensor_type;location;lat;lon;timestamp;temperature;humidity
5086;DHT22;4715;51.660;7.082;2023-06-22T00:02:06;23.50;99.90
5086;DHT22;4715;51.660;7.082;2023-06-22T00:04:29;23.50;99.90
5086;DHT22;4715;51.660;7.082;2023-06-22T00:06:56;23.50;99.90
5086;DHT22;4715;51.660;7.082;2023-06-22T00:09:18;23.50;99.90
5086;DHT22;4715;51.660;7.082;2023-06-22T00:11:43;23.40;99.90
5086;DHT22;4715;51.660;7.082;2023-06-22T00:14:05;23.40;99.90
5086;DHT22;4715;51.660;7.082;2023-06-22T00:16:31;23.40;99.90
5086;DHT22;4715;51.660;7.082;2023-06-22T00:18:53;23.40;99.90
5086;DHT22;4715;51.660;7.082;2023-06-22T00:21:16;23.40;99.90
5086;DHT22;4715;51.660;7.082;2023-06-22T00:23:41;23.40;99.90
5086;DHT22;4715;51.660;7.082;2023-06-22T00:26:04;23.40;99.90
5086;DHT22;4715;51.660;7.082;2023-06-22T00:28:26;23.40;99.90
5086;DHT22;4715;51.660;7.082;2023-06-22T00:30:49;23.40;99.90
5086;DHT22;4715;51.660;7.082;2023-06-22T00:33:12;23.40;99.90
5086;DHT22;4715;51.660;7.082;2023-06-22T00:35:36;23.40;99.90
5086;DHT22;4715;51.660;7.082;2023-06-22T00:38:07;23.40;99.90
5086;DHT22;4715;51.660;7.082;2023-06-22T00:40:32;23.30;99.90
5086;DHT22;4715;51.660;7.082;2023-06-22T00:42:55;23.30;99.90
5086;DHT22;4715;51.660;7.082;2023-06-22T00:45:22;23.30;99.90
5086;DHT22;4715;51.660;7.082;2023-06-22T00:47:46;23.30;99.90
5086;DHT22;4715;51.660;7.082;2023-06-22T00:50:09;23.30;99.90
5086;DHT22;4715;51.660;7.082;2023-06-22T00:52:35;23.30;99.90
5086;DHT22;4715;51.660;7.082;2023-06-22T00:55:01;23.30;99.90
5086;DHT22;4715;51.660;7.082;2023-06-22T00:57:27;23.30;99.90
5086;DHT22;4715;51.660;7.082;2023-06-22T00:59:49;23.30;99.90
5086;DHT22;4715;51.660;7.082;2023-06-22T01:02:14;23.20;99.90
5086;DHT22;4715;51.660;7.082;2023-06-22T01:04:38;23.20;99.90
5086;DHT22;4715;51.660;7.082;2023-06-22T01:07:05;23.20;99.90
5086;DHT22;4715;51.660;7.082;2023-06-22T01:09:39;23.20;99.90
5086;DHT22;4715;51.660;7.082;2023-06-22T01:12:07;23.20;99.90
5086;DHT22;4715;51.660;7.082;2023-06-22T01:14:36;23.20;99.90
5086;DHT22;4715;51.660;7.082;2023-06-22T01:17:16;23.20;99.90
5086;DHT22;4715;51.660;7.082;2023-06-22T01:19:45;23.20;99.90
5086;DHT22;4715;51.660;7.082;2023-06-22T01:22:08;23.10;99.90
5086;DHT22;4715;51.660;7.082;2023-06-22T01:24:45;23.10;99.90
5086;DHT22;4715;51.660;7.082;2023-06-22T01:27:17;23.10;99.90
5086;DHT22;4715;51.660;7.082;2023-06-22T01:29:44;23.10;99.90
5086;DHT22;4715;51.660;7.082;2023-06-22T01:32:07;23.10;99.90
5086;DHT22;4715;51.660;7.082;2023-06-22T01:34:31;23.10;99.90
5086;DHT22;4715;51.660;7.082;2023-06-22T01:36:53;23.10;99.90
5086;DHT22;4715;51.660;7.082;2023-06-22T01:39:16;23.00;99.90
5086;DHT22;4715;51.660;7.082;2023-06-22T01:41:38;23.00;99.90
5086;DHT22;4715;51.660;7.082;2023-06-22T01:44:01;23.00;99.90
5086;DHT22;4715;51.660;7.082;2023-06-22T01:46:25;22.90;99.90
5086;DHT22;4715;51.660;7.082;2023-06-22T01:48:47;22.90;99.90
5086;DHT22;4715;51.660;7.082;2023-06-22T01:51:09;22.80;99.90
5086;DHT22;4715;51.660;7.082;2023-06-22T01:53:31;22.80;99.90
5086;DHT22;4715;51.660;7.082;2023-06-22T01:55:53;22.80;99.90
5086;DHT22;4715;51.660;7.082;2023-06-22T01:58:15;22.70;99.90
5086;DHT22;4715;51.660;7.082;2023-06-22T02:00:39;22.70;99.90
5086;DHT22;4715;51.660;7.082;2023-06-22T02:03:09;22.70;99.90
5086;DHT22;4715;51.660;7.082;2023-06-22T02:05:35;22.70;99.90
5086;DHT22;4715;51.660;7.082;2023-06-22T02:08:06;22.60;99.90
5086;DHT22;4715;51.660;7.082;2023-06-22T02:10:29;22.60;99.90
5086;DHT22;4715;51.660;7.082;2023-06-22T02:12:54;22.60;99.90
5086;DHT22;4715;51.660;7.082;2023-06-22T02:15:16;22.60;99.90
5086;DHT22;4715;51.660;7.082;2023-06-22T02:17:39;22.60;99.90
5086;DHT22;4715;51.660;7.082;2023-06-22T02:20:12;22.50;99.90
5086;DHT22;4715;51.660;7.082;2023-06-22T02:22:34;22.50;99.90
5086;DHT22;4715;51.660;7.082;2023-06-22T02:24:56;22.50;99.90
5086;DHT22;4715;51.660;7.082;2023-06-22T02:27:19;22.50;99.90
5086;DHT22;4715;51.660;7.082;2023-06-22T02:29:40;22.50;99.90
5086;DHT22;4715;51.660;7.082;2023-06-22T02:32:03;22.50;99.90
5086;DHT22;4715;51.660;7.082;2023-06-22T02:34:25;22.50;99.90
5086;DHT22;4715;51.660;7.082;2023-06-22T02:36:49;22.40;99.90
5086;DHT22;4715;51.660;7.082;2023-06-22T02:39:12;22.40;99.90
5086;DHT22;4715;51.660;7.082;2023-06-22T02:41:33;22.40;99.90
5086;DHT22;4715;51.660;7.082;2023-06-22T02:43:55;22.40;99.90
5086;DHT22;4715;51.660;7.082;2023-06-22T02:46:17;22.30;99.90
5086;DHT22;4715;51.660;7.082;2023-06-22T02:48:39;22.30;99.90
5086;DHT22;4715;51.660;7.082;2023-06-22T02:51:01;22.30;99.90
5086;DHT22;4715;51.660;7.082;2023-06-22T02:53:24;22.30;99.90
5086;DHT22;4715;51.660;7.082;2023-06-22T02:55:46;22.30;99.90
5086;DHT22;4715;51.660;7.082;2023-06-22T02:58:08;22.20;99.90
5086;DHT22;4715;51.660;7.082;2023-06-22T03:00:30;22.20;99.90
5086;DHT22;4715;51.660;7.082;2023-06-22T03:02:52;22.20;99.90
5086;DHT22;4715;51.660;7.082;2023-06-22T03:05:14;22.20;99.90
5086;DHT22;4715;51.660;7.082;2023-06-22T03:07:38;22.20;99.90
5086;DHT22;4715;51.660;7.082;2023-06-22T03:10:02;22.10;99.90
5086;DHT22;4715;51.660;7.082;2023-06-22T03:12:24;22.10;99.90
5086;DHT22;4715;51.660;7.082;2023-06-22T03:14:45;22.10;99.90
5086;DHT22;4715;51.660;7.082;2023-06-22T03:17:07;22.00;99.90
5086;DHT22;4715;51.660;7.082;2023-06-22T03:19:29;22.00;99.90
5086;DHT22;4715;51.660;7.082;2023-06-22T03:21:51;22.00;99.90
5086;DHT22;4715;51.660;7.082;2023-06-22T03:24:13;21.90;99.90
5086;DHT22;4715;51.660;7.082;2023-06-22T03:26:36;21.90;99.90
5086;DHT22;4715;51.660;7.082;2023-06-22T03:28:58;21.90;99.90
5086;DHT22;4715;51.660;7.082;2023-06-22T03:31:20;21.80;99.90
5086;DHT22;4715;51.660;7.082;2023-06-22T03:33:42;21.80;99.90
5086;DHT22;4715;51.660;7.082;2023-06-22T03:36:04;21.80;99.90
5086;DHT22;4715;51.660;7.082;2023-06-22T03:38:26;21.80;99.90
5086;DHT22;4715;51.660;7.082;2023-06-22T03:40:48;21.80;99.90
5086;DHT22;4715;51.660;7.082;2023-06-22T03:43:11;21.80;99.90
5086;DHT22;4715;51.660;7.082;2023-06-22T03:45:33;21.80;99.90
5086;DHT22;4715;51.660;7.082;2023-06-22T03:47:55;21.80;99.90
5086;DHT22;4715;51.660;7.082;2023-06-22T03:50:18;21.80;99.90
5086;DHT22;4715;51.660;7.082;2023-06-22T03:52:41;21.80;99.90
5086;DHT22;4715;51.660;7.082;2023-06-22T03:55:03;21.70;99.90
5086;DHT22;4715;51.660;7.082;2023-06-22T03:57:25;21.70;99.90
5086;DHT22;4715;51.660;7.082;2023-06-22T03:59:49;21.70;99.90
5086;DHT22;4715;51.660;7.082;2023-06-22T04:02:11;21.70;99.90
5086;DHT22;4715;51.660;7.082;2023-06-22T04:04:32;21.70;99.90
5086;DHT22;4715;51.660;7.082;2023-06-22T04:06:55;21.70;99.90
5086;DHT22;4715;51.660;7.082;2023-06-22T04:09:17;21.70;99.90
5086;DHT22;4715;51.660;7.082;2023-06-22T04:11:39;21.70;99.90
5086;DHT22;4715;51.660;7.082;2023-06-22T04:14:01;21.70;99.90
5086;DHT22;4715;51.660;7.082;2023-06-22T04:16:24;21.60;99.90
5086;DHT22;4715;51.660;7.082;2023-06-22T04:18:46;21.60;99.90
5086;DHT22;4715;51.660;7.082;2023-06-22T04:21:08;21.60;99.90
5086;DHT22;4715;51.660;7.082;2023-06-22T04:23:30;21.60;99.90
5086;DHT22;4715;51.660;7.082;2023-06-22T04:25:52;21.60;99.90
5086;DHT22;4715;51.660;7.082;2023-06-22T04:28:13;21.60;99.90
5086;DHT22;4715;51.660;7.082;2023-06-22T04:30:35;21.60;99.90
5086;DHT22;4715;51.660;7.082;2023-06-22T04:33:01;21.60;99.90
5086;DHT22;4715;51.660;7.082;2023-06-22T04:35:23;21.60;99.90
5086;DHT22;4715;51.660;7.082;2023-06-22T04:37:45;21.60;99.90
5086;DHT22;4715;51.660;7.082;2023-06-22T04:40:10;21.50;99.90
5086;DHT22;4715;51.660;7.082;2023-06-22T04:42:35;21.60;99.90
5086;DHT22;4715;51.660;7.082;2023-06-22T04:44:57;21.60;99.90
5086;DHT22;4715;51.660;7.082;2023-06-22T04:47:19;21.50;99.90
5086;DHT22;4715;51.660;7.082;2023-06-22T04:49:42;21.60;99.90
5086;DHT22;4715;51.660;7.082;2023-06-22T04:52:05;21.60;99.90
5086;DHT22;4715;51.660;7.082;2023-06-22T04:54:27;21.70;99.90
5086;DHT22;4715;51.660;7.082;2023-06-22T04:56:49;21.70;99.90
5086;DHT22;4715;51.660;7.082;2023-06-22T04:59:17;21.80;99.90
5086;DHT22;4715;51.660;7.082;2023-06-22T05:01:39;21.80;99.90
5086;DHT22;4715;51.660;7.082;2023-06-22T05:04:01;21.90;99.90
5086;DHT22;4715;51.660;7.082;2023-06-22T05:06:25;22.00;99.90
5086;DHT22;4715;51.660;7.082;2023-06-22T05:08:47;22.00;99.90
5086;DHT22;4715;51.660;7.082;2023-06-22T05:11:09;22.00;99.90
5086;DHT22;4715;51.660;7.082;2023-06-22T05:13:31;22.00;99.90
5086;DHT22;4715;51.660;7.082;2023-06-22T05:15:53;22.00;99.90
5086;DHT22;4715;51.660;7.082;2023-06-22T05:18:22;22.10;99.90
5086;DHT22;4715;51.660;7.082;2023-06-22T05:20:44;22.10;99.90
5086;DHT22;4715;51.660;7.082;2023-06-22T05:23:08;22.10;99.90
5086;DHT22;4715;51.660;7.082;2023-06-22T05:25:30;22.20;99.90
5086;DHT22;4715;51.660;7.082;2023-06-22T05:27:53;22.20;99.90
5086;DHT22;4715;51.660;7.082;2023-06-22T05:30:15;22.20;99.90
5086;DHT22;4715;51.660;7.082;2023-06-22T05:32:46;22.30;99.90
5086;DHT22;4715;51.660;7.082;2023-06-22T05:35:10;22.30;99.90
5086;DHT22;4715;51.660;7.082;2023-06-22T05:37:32;22.30;99.90
5086;DHT22;4715;51.660;7.082;2023-06-22T05:39:55;22.30;99.90
5086;DHT22;4715;51.660;7.082;2023-06-22T05:42:20;22.30;99.90
5086;DHT22;4715;51.660;7.082;2023-06-22T05:44:42;22.40;99.90
5086;DHT22;4715;51.660;7.082;2023-06-22T05:47:18;22.40;99.90
5086;DHT22;4715;51.660;7.082;2023-06-22T05:49:39;22.40;99.90
5086;DHT22;4715;51.660;7.082;2023-06-22T05:52:02;22.30;99.90
5086;DHT22;4715;51.660;7.082;2023-06-22T05:54:23;22.40;99.90
5086;DHT22;4715;51.660;7.082;2023-06-22T05:56:47;22.40;99.90
5086;DHT22;4715;51.660;7.082;2023-06-22T05:59:08;22.40;99.90
5086;DHT22;4715;51.660;7.082;2023-06-22T06:01:30;22.40;99.90
5086;DHT22;4715;51.660;7.082;2023-06-22T06:03:55;22.50;99.90
5086;DHT22;4715;51.660;7.082;2023-06-22T06:06:17;22.50;99.90
5086;DHT22;4715;51.660;7.082;2023-06-22T06:08:42;22.50;99.90
5086;DHT22;4715;51.660;7.082;2023-06-22T06:11:04;22.50;99.90
5086;DHT22;4715;51.660;7.082;2023-06-22T06:13:27;22.50;99.90
5086;DHT22;4715;51.660;7.082;2023-06-22T06:15:49;22.60;99.90
5086;DHT22;4715;51.660;7.082;2023-06-22T06:18:12;22.50;99.90
5086;DHT22;4715;51.660;7.082;2023-06-22T06:20:37;22.50;99.90
5086;DHT22;4715;51.660;7.082;2023-06-22T06:22:59;22.50;99.90
5086;DHT22;4715;51.660;7.082;2023-06-22T06:25:21;22.50;99.90
5086;DHT22;4715;51.660;7.082;2023-06-22T06:27:45;22.50;99.90
5086;DHT22;4715;51.660;7.082;2023-06-22T06:30:10;22.50;99.90
5086;DHT22;4715;51.660;7.082;2023-06-22T06:32:32;22.40;99.90
5086;DHT22;4715;51.660;7.082;2023-06-22T06:34:54;22.40;99.90
5086;DHT22;4715;51.660;7.082;2023-06-22T06:37:16;22.40;99.90
5086;DHT22;4715;51.660;7.082;2023-06-22T06:39:38;22.40;99.90
5086;DHT22;4715;51.660;7.082;2023-06-22T06:42:00;22.40;99.90
5086;DHT22;4715;51.660;7.082;2023-06-22T06:44:23;22.40;99.90
5086;DHT22;4715;51.660;7.082;2023-06-22T06:46:46;22.40;99.90
5086;DHT22;4715;51.660;7.082;2023-06-22T06:49:08;22.40;99.90
5086;DHT22;4715;51.660;7.082;2023-06-22T06:51:30;22.40;99.90
5086;DHT22;4715;51.660;7.082;2023-06-22T06:53:52;22.40;99.90
5086;DHT22;4715;51.660;7.082;2023-06-22T06:56:14;22.40;99.90
5086;DHT22;4715;51.660;7.082;2023-06-22T06:58:36;22.40;99.90
5086;DHT22;4715;51.660;7.082;2023-06-22T07:00:58;22.40;99.90
5086;DHT22;4715;51.660;7.082;2023-06-22T07:03:22;22.30;99.90
5086;DHT22;4715;51.660;7.082;2023-06-22T07:05:47;22.30;99.90
5086;DHT22;4715;51.660;7.082;2023-06-22T07:08:10;22.30;99.90
5086;DHT22;4715;51.660;7.082;2023-06-22T07:10:32;22.30;99.90
5086;DHT22;4715;51.660;7.082;2023-06-22T07:12:53;22.30;99.90
5086;DHT22;4715;51.660;7.082;2023-06-22T07:15:15;22.30;99.90
5086;DHT22;4715;51.660;7.082;2023-06-22T07:17:39;22.30;99.90
5086;DHT22;4715;51.660;7.082;2023-06-22T07:20:04;22.30;99.90
5086;DHT22;4715;51.660;7.082;2023-06-22T07:22:28;22.30;99.90
5086;DHT22;4715;51.660;7.082;2023-06-22T07:24:51;22.30;99.90
5086;DHT22;4715;51.660;7.082;2023-06-22T07:27:14;22.30;99.90
5086;DHT22;4715;51.660;7.082;2023-06-22T07:29:39;22.30;99.90
5086;DHT22;4715;51.660;7.082;2023-06-22T07:32:03;22.30;99.90
5086;DHT22;4715;51.660;7.082;2023-06-22T07:34:25;22.30;99.90
5086;DHT22;4715;51.660;7.082;2023-06-22T07:36:50;22.30;99.90
5086;DHT22;4715;51.660;7.082;2023-06-22T07:39:12;22.30;99.90
5086;DHT22;4715;51.660;7.082;2023-06-22T07:41:35;22.30;99.90
5086;DHT22;4715;51.660;7.082;2023-06-22T07:43:57;22.30;99.90
5086;DHT22;4715;51.660;7.082;2023-06-22T07:46:18;22.30;99.90
5086;DHT22;4715;51.660;7.082;2023-06-22T07:48:41;22.30;99.90
5086;DHT22;4715;51.660;7.082;2023-06-22T07:51:04;22.30;99.90
5086;DHT22;4715;51.660;7.082;2023-06-22T07:53:29;22.30;99.90
5086;DHT22;4715;51.660;7.082;2023-06-22T07:55:51;22.40;99.90
5086;DHT22;4715;51.660;7.082;2023-06-22T07:58:12;22.40;99.90
5086;DHT22;4715;51.660;7.082;2023-06-22T08:00:34;22.40;99.90
5086;DHT22;4715;51.660;7.082;2023-06-22T08:02:56;22.40;99.90
5086;DHT22;4715;51.660;7.082;2023-06-22T08:05:18;22.50;99.90
5086;DHT22;4715;51.660;7.082;2023-06-22T08:07:40;22.50;99.90
5086;DHT22;4715;51.660;7.082;2023-06-22T08:10:10;22.50;99.90
5086;DHT22;4715;51.660;7.082;2023-06-22T08:12:33;22.60;99.90
5086;DHT22;4715;51.660;7.082;2023-06-22T08:14:55;22.70;99.90
5086;DHT22;4715;51.660;7.082;2023-06-22T08:17:17;22.80;99.90
5086;DHT22;4715;51.660;7.082;2023-06-22T08:19:40;22.80;99.90
5086;DHT22;4715;51.660;7.082;2023-06-22T08:22:02;22.90;99.90
5086;DHT22;4715;51.660;7.082;2023-06-22T08:24:24;23.00;99.90
5086;DHT22;4715;51.660;7.082;2023-06-22T08:26:47;23.00;99.90
5086;DHT22;4715;51.660;7.082;2023-06-22T08:29:08;23.10;99.90
5086;DHT22;4715;51.660;7.082;2023-06-22T08:31:31;23.10;99.90
5086;DHT22;4715;51.660;7.082;2023-06-22T08:33:58;23.20;99.90
5086;DHT22;4715;51.660;7.082;2023-06-22T08:36:24;23.20;99.90
5086;DHT22;4715;51.660;7.082;2023-06-22T08:38:49;23.30;99.90
5086;DHT22;4715;51.660;7.082;2023-06-22T08:41:12;23.40;99.90
5086;DHT22;4715;51.660;7.082;2023-06-22T08:43:35;23.50;99.90
5086;DHT22;4715;51.660;7.082;2023-06-22T08:45:57;23.60;99.90
5086;DHT22;4715;51.660;7.082;2023-06-22T08:48:20;23.70;99.90
5086;DHT22;4715;51.660;7.082;2023-06-22T08:50:42;23.80;99.90
5086;DHT22;4715;51.660;7.082;2023-06-22T08:53:04;24.00;99.90
5086;DHT22;4715;51.660;7.082;2023-06-22T08:55:26;24.20;99.90
5086;DHT22;4715;51.660;7.082;2023-06-22T08:57:48;24.30;99.90
5086;DHT22;4715;51.660;7.082;2023-06-22T09:00:12;24.50;99.90
5086;DHT22;4715;51.660;7.082;2023-06-22T09:02:37;24.60;99.90
5086;DHT22;4715;51.660;7.082;2023-06-22T09:05:03;24.60;99.90
5086;DHT22;4715;51.660;7.082;2023-06-22T09:07:26;24.60;99.90
5086;DHT22;4715;51.660;7.082;2023-06-22T09:09:48;24.70;99.90
5086;DHT22;4715;51.660;7.082;2023-06-22T09:12:10;24.70;99.90
5086;DHT22;4715;51.660;7.082;2023-06-22T09:14:32;24.80;99.90
5086;DHT22;4715;51.660;7.082;2023-06-22T09:16:56;24.80;99.90
5086;DHT22;4715;51.660;7.082;2023-06-22T09:19:18;24.90;99.90
5086;DHT22;4715;51.660;7.082;2023-06-22T09:21:41;24.90;99.90
5086;DHT22;4715;51.660;7.082;2023-06-22T09:24:08;25.00;99.90
5086;DHT22;4715;51.660;7.082;2023-06-22T09:26:30;25.10;99.90
5086;DHT22;4715;51.660;7.082;2023-06-22T09:28:55;25.20;99.90
5086;DHT22;4715;51.660;7.082;2023-06-22T09:31:18;25.40;99.90
5086;DHT22;4715;51.660;7.082;2023-06-22T09:33:51;25.40;99.90
5086;DHT22;4715;51.660;7.082;2023-06-22T09:36:17;25.50;99.90
5086;DHT22;4715;51.660;7.082;2023-06-22T09:38:42;25.60;99.90
5086;DHT22;4715;51.660;7.082;2023-06-22T09:41:07;25.70;99.90
5086;DHT22;4715;51.660;7.082;2023-06-22T09:43:32;25.70;99.90
5086;DHT22;4715;51.660;7.082;2023-06-22T09:45:57;25.70;99.90
5086;DHT22;4715;51.660;7.082;2023-06-22T09:48:19;25.70;99.90
5086;DHT22;4715;51.660;7.082;2023-06-22T09:50:42;25.70;99.90
5086;DHT22;4715;51.660;7.082;2023-06-22T09:53:05;25.60;99.90
5086;DHT22;4715;51.660;7.082;2023-06-22T09:55:27;25.60;99.90
5086;DHT22;4715;51.660;7.082;2023-06-22T09:57:51;25.60;99.90
5086;DHT22;4715;51.660;7.082;2023-06-22T10:00:14;25.50;99.90
5086;DHT22;4715;51.660;7.082;2023-06-22T10:02:37;25.60;99.90
5086;DHT22;4715;51.660;7.082;2023-06-22T10:05:08;25.50;99.90
5086;DHT22;4715;51.660;7.082;2023-06-22T10:07:33;25.50;99.90
5086;DHT22;4715;51.660;7.082;2023-06-22T10:09:55;25.50;99.90
5086;DHT22;4715;51.660;7.082;2023-06-22T10:12:16;25.50;99.90
5086;DHT22;4715;51.660;7.082;2023-06-22T10:14:38;25.50;99.90
5086;DHT22;4715;51.660;7.082;2023-06-22T10:17:00;25.50;99.90
5086;DHT22;4715;51.660;7.082;2023-06-22T10:19:22;25.50;99.90
5086;DHT22;4715;51.660;7.082;2023-06-22T10:21:44;25.50;99.90
5086;DHT22;4715;51.660;7.082;2023-06-22T10:24:07;25.50;99.90
5086;DHT22;4715;51.660;7.082;2023-06-22T10:26:29;25.50;99.90
5086;DHT22;4715;51.660;7.082;2023-06-22T10:28:51;25.50;99.90
5086;DHT22;4715;51.660;7.082;2023-06-22T10:31:14;25.50;99.90
5086;DHT22;4715;51.660;7.082;2023-06-22T10:33:37;25.60;99.90
5086;DHT22;4715;51.660;7.082;2023-06-22T10:35:58;25.80;99.90
5086;DHT22;4715;51.660;7.082;2023-06-22T10:38:20;26.00;99.90
5086;DHT22;4715;51.660;7.082;2023-06-22T10:40:45;26.10;99.90
5086;DHT22;4715;51.660;7.082;2023-06-22T10:43:07;26.30;99.90
5086;DHT22;4715;51.660;7.082;2023-06-22T10:45:28;26.50;99.90
5086;DHT22;4715;51.660;7.082;2023-06-22T10:47:50;26.60;99.90
5086;DHT22;4715;51.660;7.082;2023-06-22T10:50:13;26.70;99.90
5086;DHT22;4715;51.660;7.082;2023-06-22T10:52:37;26.90;99.90
5086;DHT22;4715;51.660;7.082;2023-06-22T10:55:00;27.00;99.90
5086;DHT22;4715;51.660;7.082;2023-06-22T10:57:23;27.20;99.90
5086;DHT22;4715;51.660;7.082;2023-06-22T10:59:45;27.30;99.90
5086;DHT22;4715;51.660;7.082;2023-06-22T11:02:07;27.40;99.90
5086;DHT22;4715;51.660;7.082;2023-06-22T11:04:30;27.40;99.90
5086;DHT22;4715;51.660;7.082;2023-06-22T11:06:52;27.40;99.90
5086;DHT22;4715;51.660;7.082;2023-06-22T11:09:14;27.30;99.90
5086;DHT22;4715;51.660;7.082;2023-06-22T11:11:42;27.20;99.90
5086;DHT22;4715;51.660;7.082;2023-06-22T11:14:05;27.10;99.90
5086;DHT22;4715;51.660;7.082;2023-06-22T11:16:27;27.10;99.90
5086;DHT22;4715;51.660;7.082;2023-06-22T11:18:49;27.00;99.90
5086;DHT22;4715;51.660;7.082;2023-06-22T11:21:11;26.90;99.90
5086;DHT22;4715;51.660;7.082;2023-06-22T11:23:33;26.80;99.90
5086;DHT22;4715;51.660;7.082;2023-06-22T11:25:57;26.70;99.90
5086;DHT22;4715;51.660;7.082;2023-06-22T11:28:19;26.60;99.90
5086;DHT22;4715;51.660;7.082;2023-06-22T11:30:42;26.60;99.90
5086;DHT22;4715;51.660;7.082;2023-06-22T11:33:04;26.50;99.90
5086;DHT22;4715;51.660;7.082;2023-06-22T11:35:25;26.40;99.90
5086;DHT22;4715;51.660;7.082;2023-06-22T11:37:47;26.40;99.90
5086;DHT22;4715;51.660;7.082;2023-06-22T11:40:10;26.30;99.90
5086;DHT22;4715;51.660;7.082;2023-06-22T11:42:32;26.30;99.90
5086;DHT22;4715;51.660;7.082;2023-06-22T11:44:54;26.20;99.90
5086;DHT22;4715;51.660;7.082;2023-06-22T11:47:20;26.10;99.90
5086;DHT22;4715;51.660;7.082;2023-06-22T11:49:42;26.00;99.90
5086;DHT22;4715;51.660;7.082;2023-06-22T11:52:04;26.00;99.90
5086;DHT22;4715;51.660;7.082;2023-06-22T11:54:27;25.90;99.90
5086;DHT22;4715;51.660;7.082;2023-06-22T11:56:50;25.80;99.90
5086;DHT22;4715;51.660;7.082;2023-06-22T11:59:14;25.70;99.90
5086;DHT22;4715;51.660;7.082;2023-06-22T12:01:36;25.60;99.90
5086;DHT22;4715;51.660;7.082;2023-06-22T12:04:03;25.60;99.90
5086;DHT22;4715;51.660;7.082;2023-06-22T12:06:26;25.50;99.90
5086;DHT22;4715;51.660;7.082;2023-06-22T12:08:48;25.40;99.90
5086;DHT22;4715;51.660;7.082;2023-06-22T12:11:10;25.30;99.90
5086;DHT22;4715;51.660;7.082;2023-06-22T12:13:32;25.20;99.90
5086;DHT22;4715;51.660;7.082;2023-06-22T12:15:56;25.10;99.90
5086;DHT22;4715;51.660;7.082;2023-06-22T12:18:18;25.00;99.90
5086;DHT22;4715;51.660;7.082;2023-06-22T12:20:42;24.90;99.90
5086;DHT22;4715;51.660;7.082;2023-06-22T12:23:05;24.80;99.90
5086;DHT22;4715;51.660;7.082;2023-06-22T12:25:27;24.70;99.90
5086;DHT22;4715;51.660;7.082;2023-06-22T12:27:51;24.60;99.90
5086;DHT22;4715;51.660;7.082;2023-06-22T12:30:15;24.40;99.90
5086;DHT22;4715;51.660;7.082;2023-06-22T12:32:37;24.40;99.90
5086;DHT22;4715;51.660;7.082;2023-06-22T12:34:59;24.20;99.90
5086;DHT22;4715;51.660;7.082;2023-06-22T12:37:23;24.20;99.90
5086;DHT22;4715;51.660;7.082;2023-06-22T12:39:48;24.10;99.90
5086;DHT22;4715;51.660;7.082;2023-06-22T12:42:10;24.00;99.90
5086;DHT22;4715;51.660;7.082;2023-06-22T12:44:32;23.90;99.90
5086;DHT22;4715;51.660;7.082;2023-06-22T12:46:54;23.80;99.90
5086;DHT22;4715;51.660;7.082;2023-06-22T12:49:16;23.80;99.90
5086;DHT22;4715;51.660;7.082;2023-06-22T12:51:40;23.70;99.90
5086;DHT22;4715;51.660;7.082;2023-06-22T12:54:04;23.70;99.90
5086;DHT22;4715;51.660;7.082;2023-06-22T12:56:26;23.70;99.90
5086;DHT22;4715;51.660;7.082;2023-06-22T12:58:48;23.70;99.90
5086;DHT22;4715;51.660;7.082;2023-06-22T13:01:10;23.80;99.90
5086;DHT22;4715;51.660;7.082;2023-06-22T13:03:32;23.80;99.90
5086;DHT22;4715;51.660;7.082;2023-06-22T13:05:54;23.90;99.90
5086;DHT22;4715;51.660;7.082;2023-06-22T13:08:16;23.90;99.90
5086;DHT22;4715;51.660;7.082;2023-06-22T13:10:40;24.00;99.90
5086;DHT22;4715;51.660;7.082;2023-06-22T13:13:02;24.10;99.90
5086;DHT22;4715;51.660;7.082;2023-06-22T13:15:35;24.10;99.90
5086;DHT22;4715;51.660;7.082;2023-06-22T13:17:57;24.10;99.90
5086;DHT22;4715;51.660;7.082;2023-06-22T13:20:29;24.10;99.90
5086;DHT22;4715;51.660;7.082;2023-06-22T13:22:51;24.10;99.90
5086;DHT22;4715;51.660;7.082;2023-06-22T13:25:14;24.10;99.90
5086;DHT22;4715;51.660;7.082;2023-06-22T13:27:41;24.10;99.90
5086;DHT22;4715;51.660;7.082;2023-06-22T13:30:04;24.10;99.90
5086;DHT22;4715;51.660;7.082;2023-06-22T13:32:26;24.00;99.90
5086;DHT22;4715;51.660;7.082;2023-06-22T13:34:48;24.00;99.90
5086;DHT22;4715;51.660;7.082;2023-06-22T13:37:11;24.00;99.90
5086;DHT22;4715;51.660;7.082;2023-06-22T13:39:33;23.90;99.90
5086;DHT22;4715;51.660;7.082;2023-06-22T13:41:59;23.90;99.90
5086;DHT22;4715;51.660;7.082;2023-06-22T13:44:25;23.90;99.90
5086;DHT22;4715;51.660;7.082;2023-06-22T13:46:49;23.90;99.90
5086;DHT22;4715;51.660;7.082;2023-06-22T13:49:11;23.90;99.90
5086;DHT22;4715;51.660;7.082;2023-06-22T13:51:33;23.90;99.90
5086;DHT22;4715;51.660;7.082;2023-06-22T13:53:55;23.80;99.90
5086;DHT22;4715;51.660;7.082;2023-06-22T13:56:22;23.80;99.90
5086;DHT22;4715;51.660;7.082;2023-06-22T13:58:44;23.80;99.90
5086;DHT22;4715;51.660;7.082;2023-06-22T14:01:08;23.70;99.90
5086;DHT22;4715;51.660;7.082;2023-06-22T14:03:31;23.70;99.90
5086;DHT22;4715;51.660;7.082;2023-06-22T14:05:53;23.70;99.90
5086;DHT22;4715;51.660;7.082;2023-06-22T14:08:16;23.70;99.90
5086;DHT22;4715;51.660;7.082;2023-06-22T14:10:40;23.70;99.90
5086;DHT22;4715;51.660;7.082;2023-06-22T14:13:02;23.70;99.90
5086;DHT22;4715;51.660;7.082;2023-06-22T14:15:26;23.70;99.90
5086;DHT22;4715;51.660;7.082;2023-06-22T14:17:49;23.60;99.90
5086;DHT22;4715;51.660;7.082;2023-06-22T14:20:11;23.60;99.90
5086;DHT22;4715;51.660;7.082;2023-06-22T14:22:33;23.60;99.90
5086;DHT22;4715;51.660;7.082;2023-06-22T14:24:55;23.70;99.90
5086;DHT22;4715;51.660;7.082;2023-06-22T14:27:18;23.80;99.90
5086;DHT22;4715;51.660;7.082;2023-06-22T14:29:40;23.80;99.90
5086;DHT22;4715;51.660;7.082;2023-06-22T14:32:01;23.90;99.90
5086;DHT22;4715;51.660;7.082;2023-06-22T14:34:26;24.00;99.90
5086;DHT22;4715;51.660;7.082;2023-06-22T14:36:48;24.00;99.90
5086;DHT22;4715;51.660;7.082;2023-06-22T14:39:09;24.10;99.90
5086;DHT22;4715;51.660;7.082;2023-06-22T14:41:31;24.10;99.90
5086;DHT22;4715;51.660;7.082;2023-06-22T14:43:53;24.10;99.90
5086;DHT22;4715;51.660;7.082;2023-06-22T14:46:16;24.00;99.90
5086;DHT22;4715;51.660;7.082;2023-06-22T14:48:40;23.90;99.90
5086;DHT22;4715;51.660;7.082;2023-06-22T14:51:03;23.90;99.90
5086;DHT22;4715;51.660;7.082;2023-06-22T14:53:25;23.90;99.90
5086;DHT22;4715;51.660;7.082;2023-06-22T14:55:48;23.90;99.90
5086;DHT22;4715;51.660;7.082;2023-06-22T14:58:10;23.90;99.90
5086;DHT22;4715;51.660;7.082;2023-06-22T15:00:32;23.90;99.90
5086;DHT22;4715;51.660;7.082;2023-06-22T15:02:54;23.90;99.90
5086;DHT22;4715;51.660;7.082;2023-06-22T15:05:16;23.90;99.90
5086;DHT22;4715;51.660;7.082;2023-06-22T15:07:39;23.90;99.90
5086;DHT22;4715;51.660;7.082;2023-06-22T15:10:12;23.90;99.90
5086;DHT22;4715;51.660;7.082;2023-06-22T15:12:34;23.90;99.90
5086;DHT22;4715;51.660;7.082;2023-06-22T15:14:56;23.90;99.90
5086;DHT22;4715;51.660;7.082;2023-06-22T15:17:18;23.90;99.90
5086;DHT22;4715;51.660;7.082;2023-06-22T15:19:40;23.80;99.90
5086;DHT22;4715;51.660;7.082;2023-06-22T15:22:02;23.80;99.90
5086;DHT22;4715;51.660;7.082;2023-06-22T15:24:25;23.80;99.90
5086;DHT22;4715;51.660;7.082;2023-06-22T15:26:47;23.80;99.90
5086;DHT22;4715;51.660;7.082;2023-06-22T15:29:10;23.80;99.90
5086;DHT22;4715;51.660;7.082;2023-06-22T15:31:32;23.80;99.90
5086;DHT22;4715;51.660;7.082;2023-06-22T15:33:54;23.80;99.90
5086;DHT22;4715;51.660;7.082;2023-06-22T15:36:16;23.80;99.90